createdAt,value
2023-02-07T00:00:43.127Z,60.35
2023-02-07T00:03:14.789Z,59.94
2023-02-07T00:05:46.412Z,61.10
2023-02-07T00:08:18.037Z,61.30
2023-02-07T00:10:49.596Z,61.70
2023-02-07T00:13:21.189Z,61.27
2023-02-07T00:15:52.858Z,61.33
2023-02-07T00:18:24.494Z,61.21
2023-02-07T00:21:05.317Z,61.57
2023-02-07T00:23:38.138Z,62.98
2023-02-07T00:26:11.998Z,62.81
2023-02-07T00:28:46.162Z,63.08
2023-02-07T00:31:20.854Z,63.50
2023-02-07T00:33:55.739Z,63.93
2023-02-07T00:36:30.198Z,63.60
2023-02-07T00:39:05.747Z,63.93
2023-02-07T00:41:39.272Z,63.94
2023-02-07T00:44:11.722Z,63.72
2023-02-07T00:46:43.389Z,63.69
2023-02-07T00:49:15.443Z,63.88
2023-02-07T00:51:47.130Z,63.39
2023-02-07T00:54:18.712Z,63.33
2023-02-07T00:56:50.323Z,63.71
2023-02-07T00:59:21.941Z,63.39
2023-02-07T01:01:53.609Z,62.64
2023-02-07T01:04:25.215Z,62.72
2023-02-07T01:06:56.821Z,62.33
2023-02-07T01:09:30.009Z,62.40
2023-02-07T01:12:01.665Z,62.71
2023-02-07T01:14:33.335Z,61.91
2023-02-07T01:17:04.937Z,61.33
2023-02-07T01:19:36.529Z,62.32
2023-02-07T01:22:08.146Z,61.83
2023-02-07T01:24:39.734Z,62.11
2023-02-07T01:27:11.359Z,61.78
2023-02-07T01:29:43.027Z,61.25
2023-02-07T01:32:15.220Z,61.41
2023-02-07T01:34:46.895Z,61.95
2023-02-07T01:37:18.590Z,61.70
2023-02-07T01:39:50.276Z,61.33
2023-02-07T01:42:25.538Z,61.74
2023-02-07T01:45:12.653Z,60.99
2023-02-07T01:47:44.362Z,61.99
2023-02-07T01:50:16.134Z,61.65
2023-02-07T01:52:48.856Z,61.50
2023-02-07T01:55:28.655Z,61.41
2023-02-07T01:58:04.290Z,61.80
2023-02-07T02:00:37.295Z,61.20
2023-02-07T02:03:08.860Z,61.12
2023-02-07T02:05:43.355Z,61.39
2023-02-07T02:08:15.102Z,60.73
2023-02-07T02:11:01.971Z,61.24
2023-02-07T02:13:55.386Z,61.65
2023-02-07T02:16:58.421Z,61.01
2023-02-07T02:20:03.932Z,61.90
2023-02-07T02:22:47.763Z,61.26
2023-02-07T02:25:25.340Z,62.02
2023-02-07T02:28:02.786Z,61.70
2023-02-07T02:31:02.246Z,62.13
2023-02-07T02:34:01.737Z,63.01
2023-02-07T02:36:54.774Z,63.21
2023-02-07T02:39:37.102Z,63.67
2023-02-07T02:42:23.031Z,63.06
2023-02-07T02:45:05.056Z,62.89
2023-02-07T02:47:41.600Z,63.81
2023-02-07T02:50:21.310Z,64.16
2023-02-07T02:52:54.304Z,64.17
2023-02-07T02:56:06.420Z,64.80
2023-02-07T02:59:00.386Z,64.63
2023-02-07T03:02:07.446Z,64.38
2023-02-07T03:05:02.189Z,64.56
2023-02-07T03:07:58.629Z,65.23
2023-02-07T03:11:01.300Z,65.29
2023-02-07T03:13:59.034Z,65.31
2023-02-07T03:16:39.487Z,65.21
2023-02-07T03:19:22.346Z,65.23
2023-02-07T03:21:59.962Z,65.52
2023-02-07T03:24:36.190Z,65.88
2023-02-07T03:27:13.283Z,65.41
2023-02-07T03:29:48.667Z,64.87
2023-02-07T03:32:21.439Z,65.86
2023-02-07T03:35:00.933Z,66.23
2023-02-07T03:37:37.919Z,66.26
2023-02-07T03:40:11.554Z,66.94
2023-02-07T03:42:53.458Z,67.07
2023-02-07T03:45:25.675Z,67.00
2023-02-07T03:47:57.267Z,66.26
2023-02-07T03:50:28.895Z,67.31
2023-02-07T03:53:00.616Z,66.45
2023-02-07T03:55:32.959Z,66.02
2023-02-07T03:58:04.723Z,66.20
2023-02-07T04:00:37.210Z,67.21
2023-02-07T04:03:08.821Z,67.00
2023-02-07T04:05:40.739Z,66.97
2023-02-07T04:08:15.725Z,67.58
2023-02-07T04:10:57.154Z,67.67
2023-02-07T04:13:29.161Z,68.40
2023-02-07T04:16:00.822Z,68.13
2023-02-07T04:18:33.061Z,68.41
2023-02-07T04:21:07.212Z,68.11
2023-02-07T04:23:38.849Z,68.02
2023-02-07T04:26:10.559Z,68.01
2023-02-07T04:28:42.344Z,67.27
2023-02-07T04:31:13.917Z,67.91
2023-02-07T04:33:45.488Z,67.41
2023-02-07T04:36:17.118Z,67.39
2023-02-07T04:38:48.751Z,67.08
2023-02-07T04:41:20.352Z,67.93
2023-02-07T04:43:51.985Z,67.39
2023-02-07T04:46:23.697Z,67.07
2023-02-07T04:48:55.320Z,68.16
2023-02-07T04:51:26.869Z,67.96
2023-02-07T04:53:58.978Z,68.41
2023-02-07T04:56:30.878Z,68.13
2023-02-07T04:59:02.528Z,68.78
2023-02-07T05:01:34.187Z,68.47
2023-02-07T05:04:05.765Z,67.66
2023-02-07T05:06:37.340Z,68.02
2023-02-07T05:09:08.951Z,68.23
2023-02-07T05:11:40.500Z,68.11
2023-02-07T05:14:12.038Z,67.77
2023-02-07T05:16:43.800Z,68.02
2023-02-07T05:19:15.413Z,67.83
2023-02-07T05:21:46.967Z,68.27
2023-02-07T05:24:18.632Z,67.86
2023-02-07T05:26:50.254Z,67.47
2023-02-07T05:29:21.901Z,66.13
2023-02-07T05:31:53.654Z,66.38
2023-02-07T05:34:25.331Z,67.09
2023-02-07T05:36:56.963Z,68.37
2023-02-07T05:39:28.549Z,67.18
2023-02-07T05:42:00.126Z,67.70
2023-02-07T05:44:31.741Z,68.04
2023-02-07T05:47:03.352Z,67.75
2023-02-07T05:49:34.928Z,67.81
2023-02-07T05:52:06.507Z,67.61
2023-02-07T05:54:38.084Z,67.80
2023-02-07T05:57:09.680Z,67.84
2023-02-07T05:59:41.242Z,67.85
2023-02-07T06:02:13.024Z,67.92
2023-02-07T06:04:44.712Z,68.10
2023-02-07T06:07:16.326Z,68.83
2023-02-07T06:09:47.924Z,68.01
2023-02-07T06:12:19.554Z,67.82
2023-02-07T06:14:51.482Z,68.56
2023-02-07T06:17:23.156Z,68.47
2023-02-07T06:19:54.762Z,68.78
2023-02-07T06:22:26.383Z,67.96
2023-02-07T06:24:58.071Z,68.67
2023-02-07T06:27:29.678Z,69.18
2023-02-07T06:30:01.234Z,67.79
2023-02-07T06:32:34.342Z,68.76
2023-02-07T06:35:06.997Z,68.93
2023-02-07T06:37:38.620Z,69.09
2023-02-07T06:40:10.702Z,68.35
2023-02-07T06:42:42.331Z,68.01
2023-02-07T06:45:13.932Z,67.47
2023-02-07T06:47:46.214Z,67.52
2023-02-07T06:50:17.890Z,67.53
2023-02-07T06:52:49.799Z,67.60
2023-02-07T06:55:21.496Z,68.03
2023-02-07T06:57:53.082Z,68.61
2023-02-07T07:00:25.254Z,67.72
2023-02-07T07:02:56.997Z,67.96
2023-02-07T07:05:29.627Z,67.68
2023-02-07T07:08:01.616Z,67.31
2023-02-07T07:10:33.464Z,67.46
2023-02-07T07:13:05.049Z,66.57
2023-02-07T07:15:37.161Z,66.49
2023-02-07T07:18:09.080Z,67.25
2023-02-07T07:20:40.828Z,68.31
2023-02-07T07:23:12.455Z,67.33
2023-02-07T07:25:44.040Z,66.18
2023-02-07T07:28:15.716Z,58.04
2023-02-07T07:30:48.263Z,51.80
2023-02-07T07:33:20.003Z,48.87
2023-02-07T07:35:57.145Z,46.83
2023-02-07T07:38:28.927Z,47.05
2023-02-07T07:41:00.820Z,44.99
2023-02-07T07:43:32.702Z,44.37
2023-02-07T07:46:04.514Z,43.99
2023-02-07T07:48:36.287Z,42.17
2023-02-07T07:51:08.943Z,40.28
2023-02-07T07:53:40.592Z,35.96
2023-02-07T07:56:12.278Z,36.44
2023-02-07T07:58:43.921Z,34.78
2023-02-07T08:01:15.779Z,33.66
2023-02-07T08:03:47.833Z,33.56
2023-02-07T08:06:20.427Z,35.47
2023-02-07T08:08:52.389Z,35.39
2023-02-07T08:11:24.568Z,34.27
2023-02-07T08:13:56.190Z,36.15
2023-02-07T08:16:27.836Z,34.79
2023-02-07T08:18:59.495Z,36.56
2023-02-07T08:21:31.051Z,36.50
2023-02-07T08:24:02.715Z,36.23
2023-02-07T08:26:34.397Z,36.83
2023-02-07T08:29:06.026Z,35.97
2023-02-07T08:31:37.746Z,38.08
2023-02-07T08:34:09.538Z,36.94
2023-02-07T08:36:41.125Z,38.96
2023-02-07T08:39:12.795Z,36.58
2023-02-07T08:41:44.501Z,37.45
2023-02-07T08:44:16.151Z,36.55
2023-02-07T08:46:47.814Z,36.18
2023-02-07T08:49:19.841Z,35.69
2023-02-07T08:51:51.516Z,35.81
2023-02-07T08:54:23.262Z,37.58
2023-02-07T08:56:54.956Z,33.96
2023-02-07T08:59:26.630Z,31.51
2023-02-07T09:01:58.498Z,33.16
2023-02-07T09:04:30.150Z,31.96
2023-02-07T09:07:01.903Z,33.42
2023-02-07T09:09:33.619Z,35.08
2023-02-07T09:12:05.804Z,33.51
2023-02-07T09:14:38.969Z,33.22
2023-02-07T09:17:10.722Z,31.08
2023-02-07T09:19:42.407Z,31.95
2023-02-07T09:22:14.508Z,32.65
2023-02-07T09:24:46.106Z,32.52
2023-02-07T09:27:17.800Z,30.52
2023-02-07T09:29:49.341Z,29.58
2023-02-07T09:32:20.999Z,28.38
2023-02-07T09:34:52.651Z,28.29
2023-02-07T09:37:24.236Z,28.76
2023-02-07T09:39:55.863Z,28.19
2023-02-07T09:43:10.441Z,28.87
2023-02-07T09:45:47.832Z,29.53
2023-02-07T09:48:40.945Z,29.06
2023-02-07T09:51:17.636Z,29.84
2023-02-07T09:53:59.380Z,27.75
2023-02-07T09:56:34.724Z,28.62
2023-02-07T09:59:06.300Z,29.58
2023-02-07T10:01:46.390Z,28.43
2023-02-07T10:04:29.183Z,26.72
2023-02-07T10:07:05.947Z,26.67
2023-02-07T10:09:44.799Z,27.97
2023-02-07T10:12:38.994Z,28.40
2023-02-07T10:15:37.617Z,26.38
2023-02-07T10:18:27.451Z,25.14
2023-02-07T10:21:13.408Z,25.48
2023-02-07T10:24:03.566Z,26.20
2023-02-07T10:26:42.874Z,27.09
2023-02-07T10:29:48.317Z,25.59
2023-02-07T10:32:31.310Z,25.42
2023-02-07T10:35:31.404Z,23.70
2023-02-07T10:38:04.473Z,24.18
2023-02-07T10:40:56.044Z,23.38
2023-02-07T10:43:33.585Z,25.16
2023-02-07T10:46:10.776Z,24.19
2023-02-07T10:48:43.349Z,25.63
2023-02-07T10:51:29.160Z,26.01
2023-02-07T10:54:02.203Z,24.68
2023-02-07T10:56:45.141Z,23.69
2023-02-07T10:59:29.189Z,24.87
2023-02-07T11:02:01.019Z,23.33
2023-02-07T11:04:39.026Z,23.13
2023-02-07T11:07:15.485Z,25.57
2023-02-07T11:09:47.912Z,23.62
2023-02-07T11:12:22.694Z,24.28
2023-02-07T11:15:06.081Z,23.39
2023-02-07T11:17:37.670Z,23.87
2023-02-07T11:20:23.008Z,23.48
2023-02-07T11:22:57.819Z,22.26
2023-02-07T11:25:35.386Z,22.38
2023-02-07T11:28:18.809Z,22.78
2023-02-07T11:30:59.116Z,23.03
2023-02-07T11:33:35.258Z,22.50
2023-02-07T11:36:21.069Z,21.74
2023-02-07T11:38:59.284Z,22.28
2023-02-07T11:41:33.572Z,21.87
2023-02-07T11:44:18.379Z,22.06
2023-02-07T11:46:50.295Z,21.35
2023-02-07T11:49:44.272Z,21.64
2023-02-07T11:52:16.563Z,21.44
2023-02-07T11:55:00.264Z,22.20
2023-02-07T11:57:34.164Z,20.66
2023-02-07T12:00:05.980Z,20.83
2023-02-07T12:02:52.187Z,20.70
2023-02-07T12:05:31.672Z,20.57
2023-02-07T12:08:15.353Z,22.70
2023-02-07T12:10:53.389Z,20.47
2023-02-07T12:13:39.327Z,19.29
2023-02-07T12:16:24.522Z,18.74
2023-02-07T12:19:02.533Z,19.72
2023-02-07T12:22:14.686Z,19.75
2023-02-07T12:25:24.673Z,21.12
2023-02-07T12:28:03.687Z,20.43
2023-02-07T12:30:46.538Z,20.47
2023-02-07T12:33:24.103Z,19.98
2023-02-07T12:36:20.107Z,20.09
2023-02-07T12:39:19.813Z,18.14
2023-02-07T12:42:13.254Z,19.33
2023-02-07T12:44:58.527Z,19.73
2023-02-07T12:47:43.672Z,20.02
2023-02-07T12:50:39.842Z,18.96
2023-02-07T12:53:20.378Z,18.04
2023-02-07T12:55:55.009Z,19.06
2023-02-07T12:58:48.392Z,20.83
2023-02-07T13:01:32.407Z,19.09
2023-02-07T13:04:29.003Z,20.46
2023-02-07T13:07:21.757Z,19.32
2023-02-07T13:10:19.680Z,19.90
2023-02-07T13:13:01.866Z,19.21
2023-02-07T13:15:37.255Z,19.74
2023-02-07T13:18:26.147Z,19.04
2023-02-07T13:21:30.132Z,19.41
2023-02-07T13:24:06.879Z,19.10
2023-02-07T13:26:46.626Z,19.51
2023-02-07T13:29:20.394Z,21.20
2023-02-07T13:32:01.341Z,20.07
2023-02-07T13:34:45.875Z,19.75
2023-02-07T13:37:19.210Z,20.88
2023-02-07T13:40:27.753Z,20.15
2023-02-07T13:43:08.142Z,19.89
2023-02-07T13:46:00.886Z,19.63
2023-02-07T13:48:56.603Z,20.15
2023-02-07T13:51:40.913Z,19.65
2023-02-07T13:54:12.444Z,19.19
2023-02-07T13:56:57.195Z,20.41
2023-02-07T13:59:31.789Z,20.46
2023-02-07T14:02:12.188Z,19.53
2023-02-07T14:04:55.584Z,21.02
2023-02-07T14:07:33.498Z,21.24
2023-02-07T14:10:06.763Z,23.29
2023-02-07T14:12:40.096Z,20.93
2023-02-07T14:15:30.738Z,21.93
2023-02-07T14:18:05.864Z,23.87
2023-02-07T14:20:37.775Z,23.90
2023-02-07T14:23:19.742Z,24.93
2023-02-07T14:25:51.402Z,24.79
2023-02-07T14:28:34.564Z,25.33
2023-02-07T14:31:22.895Z,26.88
2023-02-07T14:34:14.850Z,28.08
2023-02-07T14:36:48.302Z,26.86
2023-02-07T14:39:19.824Z,25.28
2023-02-07T14:41:52.758Z,24.48
2023-02-07T14:44:25.386Z,25.36
2023-02-07T14:47:00.631Z,25.54
2023-02-07T14:49:35.677Z,25.92
2023-02-07T14:52:14.744Z,27.30
2023-02-07T14:54:57.871Z,27.52
2023-02-07T14:57:48.593Z,28.15
2023-02-07T15:00:53.397Z,28.88
2023-02-07T15:03:30.483Z,28.92
2023-02-07T15:06:04.881Z,30.52
2023-02-07T15:08:36.585Z,33.79
2023-02-07T15:11:12.915Z,35.12
2023-02-07T15:13:49.504Z,38.46
2023-02-07T15:16:25.872Z,39.66
2023-02-07T15:19:19.500Z,43.08
2023-02-07T15:21:51.402Z,43.48
2023-02-07T15:24:28.199Z,44.27
2023-02-07T15:27:04.017Z,44.41
2023-02-07T15:29:37.780Z,44.78
2023-02-07T15:32:32.796Z,45.24
2023-02-07T15:35:24.083Z,45.86
2023-02-07T15:38:14.981Z,46.71
2023-02-07T15:40:46.825Z,47.56
2023-02-07T15:43:26.449Z,48.25
2023-02-07T15:46:04.379Z,47.82
2023-02-07T15:48:50.996Z,48.22
2023-02-07T15:51:30.595Z,48.49
2023-02-07T15:54:02.484Z,48.50
2023-02-07T15:56:34.389Z,49.32
2023-02-07T15:59:11.114Z,49.37
2023-02-07T16:01:42.833Z,49.46
2023-02-07T16:04:14.460Z,49.84
2023-02-07T16:07:00.427Z,50.82
2023-02-07T16:09:44.522Z,51.38
2023-02-07T16:12:33.015Z,51.34
2023-02-07T16:15:23.672Z,51.73
2023-02-07T16:17:55.872Z,52.74
2023-02-07T16:20:30.037Z,52.49
2023-02-07T16:23:06.486Z,52.23
2023-02-07T16:25:38.177Z,52.92
2023-02-07T16:28:15.474Z,54.19
2023-02-07T16:30:47.172Z,54.82
2023-02-07T16:33:18.744Z,54.93
2023-02-07T16:35:50.443Z,55.37
2023-02-07T16:38:22.032Z,55.28
2023-02-07T16:40:53.680Z,55.43
2023-02-07T16:43:39.703Z,55.79
2023-02-07T16:46:11.279Z,54.99
2023-02-07T16:48:42.889Z,55.05
2023-02-07T16:51:16.650Z,56.04
2023-02-07T16:53:48.614Z,55.66
2023-02-07T16:56:27.291Z,55.36
2023-02-07T16:58:58.952Z,55.29
2023-02-07T17:01:31.170Z,55.19
2023-02-07T17:04:02.788Z,54.84
2023-02-07T17:06:34.555Z,55.99
2023-02-07T17:09:17.188Z,55.05
2023-02-07T17:11:48.939Z,55.51
2023-02-07T17:14:21.266Z,55.84
2023-02-07T17:16:53.006Z,55.74
2023-02-07T17:19:24.648Z,56.30
2023-02-07T17:21:56.272Z,56.40
2023-02-07T17:24:27.889Z,56.32
2023-02-07T17:27:00.239Z,57.56
2023-02-07T17:29:31.909Z,57.54
2023-02-07T17:32:03.730Z,57.76
2023-02-07T17:34:35.373Z,57.89
2023-02-07T17:37:10.074Z,57.48
2023-02-07T17:39:43.162Z,56.66
2023-02-07T17:42:14.822Z,56.78
2023-02-07T17:44:46.452Z,56.14
2023-02-07T17:47:18.051Z,57.26
2023-02-07T17:49:49.611Z,57.77
2023-02-07T17:52:21.303Z,56.05
2023-02-07T17:54:52.924Z,56.17
2023-02-07T17:57:24.544Z,56.16
2023-02-07T17:59:56.159Z,55.27
2023-02-07T18:02:27.805Z,55.01
2023-02-07T18:04:59.415Z,54.04
2023-02-07T18:07:31.286Z,54.58
2023-02-07T18:10:03.965Z,54.31
2023-02-07T18:12:36.842Z,54.28
2023-02-07T18:15:09.653Z,54.23
2023-02-07T18:17:42.105Z,54.15
2023-02-07T18:20:20.538Z,54.98
2023-02-07T18:22:54.306Z,55.98
2023-02-07T18:25:28.593Z,57.06
2023-02-07T18:28:00.337Z,56.17
2023-02-07T18:30:32.091Z,55.77
2023-02-07T18:33:03.793Z,56.54
2023-02-07T18:35:36.541Z,56.95
2023-02-07T18:38:08.170Z,55.77
2023-02-07T18:40:40.643Z,56.21
2023-02-07T18:43:12.565Z,56.59
2023-02-07T18:45:44.211Z,57.74
2023-02-07T18:48:15.871Z,57.32
2023-02-07T18:50:47.433Z,57.19
2023-02-07T18:53:21.234Z,56.26
2023-02-07T18:55:52.968Z,56.85
2023-02-07T18:58:24.536Z,55.57
2023-02-07T19:01:02.135Z,55.43
2023-02-07T19:03:34.278Z,54.72
2023-02-07T19:06:08.012Z,54.57
2023-02-07T19:08:40.848Z,55.29
2023-02-07T19:11:12.685Z,54.17
2023-02-07T19:13:44.382Z,54.98
2023-02-07T19:16:19.864Z,54.91
2023-02-07T19:18:51.535Z,56.14
2023-02-07T19:21:25.024Z,57.00
2023-02-07T19:23:57.713Z,58.15
2023-02-07T19:26:29.427Z,57.54
2023-02-07T19:29:02.087Z,57.88
2023-02-07T19:31:34.134Z,58.07
2023-02-07T19:34:05.759Z,58.07
2023-02-07T19:36:37.754Z,58.57
2023-02-07T19:39:10.259Z,58.02
2023-02-07T19:41:41.948Z,58.14
2023-02-07T19:44:13.513Z,58.38
2023-02-07T19:46:45.996Z,58.27
2023-02-07T19:49:17.761Z,57.23
2023-02-07T19:51:49.396Z,56.42
2023-02-07T19:54:21.077Z,56.07
2023-02-07T19:56:52.700Z,56.35
2023-02-07T19:59:24.369Z,57.68
2023-02-07T20:01:56.014Z,58.08
2023-02-07T20:04:27.688Z,58.95
2023-02-07T20:06:59.247Z,58.56
2023-02-07T20:09:30.883Z,58.61
2023-02-07T20:12:02.576Z,58.77
2023-02-07T20:14:34.150Z,57.60
2023-02-07T20:17:06.228Z,58.87
2023-02-07T20:19:37.969Z,59.72
2023-02-07T20:22:09.577Z,58.97
2023-02-07T20:24:41.184Z,59.62
2023-02-07T20:27:12.984Z,60.40
2023-02-07T20:29:44.749Z,61.21
2023-02-07T20:32:16.422Z,59.91
2023-02-07T20:34:48.107Z,61.22
2023-02-07T20:37:19.811Z,60.04
2023-02-07T20:39:51.418Z,61.47
2023-02-07T20:42:23.188Z,61.17
2023-02-07T20:44:54.877Z,61.03
2023-02-07T20:47:26.576Z,60.96
2023-02-07T20:49:58.229Z,60.29
2023-02-07T20:52:29.945Z,60.15
2023-02-07T20:55:01.628Z,60.85
2023-02-07T20:57:33.282Z,60.88
2023-02-07T21:00:05.377Z,60.31
2023-02-07T21:02:37.534Z,60.18
2023-02-07T21:05:09.296Z,60.28
2023-02-07T21:07:41.042Z,60.38
2023-02-07T21:10:12.998Z,59.88
2023-02-07T21:12:44.686Z,59.75
2023-02-07T21:15:16.506Z,59.93
2023-02-07T21:17:49.293Z,60.76
2023-02-07T21:20:20.920Z,60.70
2023-02-07T21:22:52.511Z,61.34
2023-02-07T21:25:24.298Z,60.49
2023-02-07T21:27:55.927Z,59.93
2023-02-07T21:30:27.711Z,61.51
2023-02-07T21:32:59.427Z,59.94
2023-02-07T21:35:31.927Z,60.41
2023-02-07T21:38:03.598Z,61.04
2023-02-07T21:40:35.228Z,61.42
2023-02-07T21:43:06.984Z,60.91
2023-02-07T21:45:38.584Z,61.07
2023-02-07T21:48:10.209Z,60.58
2023-02-07T21:50:42.157Z,61.54
2023-02-07T21:53:13.859Z,61.36
2023-02-07T21:55:45.577Z,60.93
2023-02-07T21:58:17.181Z,61.15
2023-02-07T22:00:48.889Z,61.31
2023-02-07T22:03:20.869Z,60.28
2023-02-07T22:05:52.764Z,60.38
2023-02-07T22:08:24.486Z,61.07
2023-02-07T22:10:56.298Z,61.61
2023-02-07T22:13:27.988Z,61.32
2023-02-07T22:16:00.141Z,61.13
2023-02-07T22:18:31.783Z,60.25
2023-02-07T22:21:10.767Z,60.48
2023-02-07T22:23:42.779Z,60.79
2023-02-07T22:26:14.716Z,60.74
2023-02-07T22:28:46.772Z,60.40
2023-02-07T22:31:22.081Z,59.94
2023-02-07T22:33:57.956Z,59.24
2023-02-07T22:36:32.409Z,60.14
2023-02-07T22:39:06.689Z,59.23
2023-02-07T22:41:38.370Z,59.67
2023-02-07T22:44:10.425Z,59.69
2023-02-07T22:46:42.025Z,59.52
2023-02-07T22:49:13.632Z,59.86
2023-02-07T22:51:45.495Z,59.59
2023-02-07T22:54:18.542Z,58.83
2023-02-07T22:56:50.122Z,59.65
2023-02-07T22:59:21.751Z,58.81
2023-02-07T23:01:53.355Z,57.90
2023-02-07T23:04:25.190Z,58.20
2023-02-07T23:06:57.268Z,58.23
2023-02-07T23:09:28.842Z,57.59
2023-02-07T23:12:00.380Z,57.50
2023-02-07T23:14:32.006Z,58.55
2023-02-07T23:17:03.587Z,59.06
2023-02-07T23:19:35.489Z,59.34
2023-02-07T23:22:07.176Z,60.29
2023-02-07T23:24:38.928Z,59.67
2023-02-07T23:27:11.311Z,60.19
2023-02-07T23:29:42.946Z,60.71
2023-02-07T23:32:14.682Z,60.31
2023-02-07T23:34:46.852Z,60.85
2023-02-07T23:37:18.487Z,60.39
2023-02-07T23:39:50.083Z,61.04
2023-02-07T23:42:22.056Z,60.86
2023-02-07T23:44:53.735Z,61.94
2023-02-07T23:47:25.354Z,62.14
2023-02-07T23:49:56.924Z,61.06
2023-02-07T23:52:28.474Z,61.98
2023-02-07T23:55:00.093Z,61.64
2023-02-07T23:57:31.677Z,62.47
